sensor_id;sensor_type;location;lat;lon;timestamp;P1;durP1;ratioP1;P2;durP2;ratioP2
22308;SDS011;11322;50.858;-1.778;2023-03-01T00:00:34;6.05;;;2.9;;
22308;SDS011;11322;50.858;-1.778;2023-03-01T00:05:34;2.55;;;2.1;;
22308;SDS011;11322;50.858;-1.778;2023-03-01T00:10:34;2.05;;;1.9;;
22308;SDS011;11322;50.858;-1.778;2023-03-01T00:15:37;4.35;;;2.75;;
22308;SDS011;11322;50.858;-1.778;2023-03-01T00:20:34;7.1;;;4.05;;
22308;SDS011;11322;50.858;-1.778;2023-03-01T00:25:40;3.25;;;2.55;;
22308;SDS011;11322;50.858;-1.778;2023-03-01T00:30:34;3.95;;;3.3;;
22308;SDS011;11322;50.858;-1.778;2023-03-01T00:35:35;5.45;;;3.05;;
22308;SDS011;11322;50.858;-1.778;2023-03-01T00:40:35;5.65;;;3.7;;
22308;SDS011;11322;50.858;-1.778;2023-03-01T00:45:34;4.35;;;3.3;;
22308;SDS011;11322;50.858;-1.778;2023-03-01T00:50:34;10.9;;;6.1;;
22308;SDS011;11322;50.858;-1.778;2023-03-01T00:55:35;4.65;;;3.1;;
22308;SDS011;11322;50.858;-1.778;2023-03-01T01:00:35;8.15;;;4.05;;
22308;SDS011;11322;50.858;-1.778;2023-03-01T01:05:34;13.6;;;5.85;;
22308;SDS011;11322;50.858;-1.778;2023-03-01T01:10:34;4.85;;;3.75;;
22308;SDS011;11322;50.858;-1.778;2023-03-01T01:15:35;10.0;;;3.75;;
22308;SDS011;11322;50.858;-1.778;2023-03-01T01:20:35;3.65;;;2.6;;
22308;SDS011;11322;50.858;-1.778;2023-03-01T01:25:35;4.6;;;2.75;;
22308;SDS011;11322;50.858;-1.778;2023-03-01T01:30:34;6.0;;;2.95;;
22308;SDS011;11322;50.858;-1.778;2023-03-01T01:35:35;6.1;;;2.6;;
22308;SDS011;11322;50.858;-1.778;2023-03-01T01:40:34;1.95;;;1.75;;
22308;SDS011;11322;50.858;-1.778;2023-03-01T01:45:35;7.3;;;2.65;;
22308;SDS011;11322;50.858;-1.778;2023-03-01T01:50:34;5.1;;;3.1;;
22308;SDS011;11322;50.858;-1.778;2023-03-01T01:55:34;8.75;;;4.5;;
22308;SDS011;11322;50.858;-1.778;2023-03-01T02:00:34;5.15;;;2.05;;
22308;SDS011;11322;50.858;-1.778;2023-03-01T02:05:36;5.85;;;3.45;;
22308;SDS011;11322;50.858;-1.778;2023-03-01T02:10:34;3.6;;;2.55;;
22308;SDS011;11322;50.858;-1.778;2023-03-01T02:15:34;5.45;;;3.1;;
22308;SDS011;11322;50.858;-1.778;2023-03-01T02:20:35;4.95;;;2.5;;
22308;SDS011;11322;50.858;-1.778;2023-03-01T02:25:36;3.05;;;2.5;;
22308;SDS011;11322;50.858;-1.778;2023-03-01T02:30:34;5.35;;;2.7;;
22308;SDS011;11322;50.858;-1.778;2023-03-01T02:35:35;5.55;;;4.2;;
22308;SDS011;11322;50.858;-1.778;2023-03-01T02:40:34;5.55;;;3.45;;
22308;SDS011;11322;50.858;-1.778;2023-03-01T02:45:34;9.8;;;4.15;;
22308;SDS011;11322;50.858;-1.778;2023-03-01T02:50:42;6.55;;;2.85;;
22308;SDS011;11322;50.858;-1.778;2023-03-01T02:55:34;4.15;;;2.85;;
22308;SDS011;11322;50.858;-1.778;2023-03-01T03:00:37;8.0;;;3.6;;
22308;SDS011;11322;50.858;-1.778;2023-03-01T03:05:34;3.45;;;2.4;;
22308;SDS011;11322;50.858;-1.778;2023-03-01T03:10:35;2.0;;;1.7;;
22308;SDS011;11322;50.858;-1.778;2023-03-01T03:15:35;4.7;;;2.55;;
22308;SDS011;11322;50.858;-1.778;2023-03-01T03:20:34;3.05;;;2.5;;
22308;SDS011;11322;50.858;-1.778;2023-03-01T03:25:35;5.15;;;3.85;;
22308;SDS011;11322;50.858;-1.778;2023-03-01T03:30:35;5.0;;;4.2;;
22308;SDS011;11322;50.858;-1.778;2023-03-01T03:35:38;7.05;;;3.55;;
22308;SDS011;11322;50.858;-1.778;2023-03-01T03:40:34;4.3;;;2.65;;
22308;SDS011;11322;50.858;-1.778;2023-03-01T03:45:34;4.45;;;2.85;;
22308;SDS011;11322;50.858;-1.778;2023-03-01T03:50:34;3.9;;;2.3;;
22308;SDS011;11322;50.858;-1.778;2023-03-01T03:55:34;3.35;;;2.3;;
22308;SDS011;11322;50.858;-1.778;2023-03-01T04:00:34;6.45;;;2.9;;
22308;SDS011;11322;50.858;-1.778;2023-03-01T04:05:35;9.35;;;4.5;;
22308;SDS011;11322;50.858;-1.778;2023-03-01T04:10:35;4.85;;;3.95;;
22308;SDS011;11322;50.858;-1.778;2023-03-01T04:15:34;8.35;;;4.95;;
22308;SDS011;11322;50.858;-1.778;2023-03-01T04:20:35;3.1;;;2.8;;
22308;SDS011;11322;50.858;-1.778;2023-03-01T04:25:34;3.5;;;2.45;;
22308;SDS011;11322;50.858;-1.778;2023-03-01T04:30:34;5.65;;;3.8;;
22308;SDS011;11322;50.858;-1.778;2023-03-01T04:35:35;2.65;;;2.0;;
22308;SDS011;11322;50.858;-1.778;2023-03-01T04:40:34;3.55;;;2.85;;
22308;SDS011;11322;50.858;-1.778;2023-03-01T04:45:34;7.2;;;4.45;;
22308;SDS011;11322;50.858;-1.778;2023-03-01T04:50:34;5.9;;;4.25;;
22308;SDS011;11322;50.858;-1.778;2023-03-01T04:55:35;9.9;;;5.55;;
22308;SDS011;11322;50.858;-1.778;2023-03-01T05:00:34;5.2;;;3.15;;
22308;SDS011;11322;50.858;-1.778;2023-03-01T05:05:35;5.85;;;4.35;;
22308;SDS011;11322;50.858;-1.778;2023-03-01T05:10:39;4.45;;;3.6;;
22308;SDS011;11322;50.858;-1.778;2023-03-01T05:15:34;10.2;;;4.9;;
22308;SDS011;11322;50.858;-1.778;2023-03-01T05:20:34;4.3;;;3.9;;
22308;SDS011;11322;50.858;-1.778;2023-03-01T05:25:34;8.5;;;4.75;;
22308;SDS011;11322;50.858;-1.778;2023-03-01T05:30:35;4.55;;;3.65;;
22308;SDS011;11322;50.858;-1.778;2023-03-01T05:35:34;9.0;;;3.15;;
22308;SDS011;11322;50.858;-1.778;2023-03-01T05:40:34;4.05;;;2.55;;
22308;SDS011;11322;50.858;-1.778;2023-03-01T05:45:35;7.2;;;2.8;;
22308;SDS011;11322;50.858;-1.778;2023-03-01T05:50:35;2.5;;;1.85;;
22308;SDS011;11322;50.858;-1.778;2023-03-01T05:55:35;5.45;;;2.7;;
22308;SDS011;11322;50.858;-1.778;2023-03-01T06:00:34;7.35;;;3.6;;
22308;SDS011;11322;50.858;-1.778;2023-03-01T06:05:34;1.2;;;1.05;;
22308;SDS011;11322;50.858;-1.778;2023-03-01T06:10:34;2.05;;;1.5;;
22308;SDS011;11322;50.858;-1.778;2023-03-01T06:15:35;6.6;;;2.45;;
22308;SDS011;11322;50.858;-1.778;2023-03-01T06:20:34;1.8;;;1.15;;
22308;SDS011;11322;50.858;-1.778;2023-03-01T06:25:38;3.85;;;1.8;;
22308;SDS011;11322;50.858;-1.778;2023-03-01T06:30:35;2.3;;;1.9;;
22308;SDS011;11322;50.858;-1.778;2023-03-01T06:35:34;1.65;;;1.15;;
22308;SDS011;11322;50.858;-1.778;2023-03-01T06:40:35;5.65;;;2.3;;
22308;SDS011;11322;50.858;-1.778;2023-03-01T06:45:35;4.85;;;2.3;;
22308;SDS011;11322;50.858;-1.778;2023-03-01T06:50:35;1.4;;;1.15;;
22308;SDS011;11322;50.858;-1.778;2023-03-01T06:55:34;1.05;;;0.95;;
22308;SDS011;11322;50.858;-1.778;2023-03-01T07:00:35;1.45;;;1.2;;
22308;SDS011;11322;50.858;-1.778;2023-03-01T07:05:34;1.8;;;1.4;;
22308;SDS011;11322;50.858;-1.778;2023-03-01T07:10:34;1.8;;;0.9;;
22308;SDS011;11322;50.858;-1.778;2023-03-01T07:15:35;1.7;;;1.6;;
22308;SDS011;11322;50.858;-1.778;2023-03-01T07:20:39;2.75;;;1.5;;
22308;SDS011;11322;50.858;-1.778;2023-03-01T07:25:34;3.0;;;1.35;;
22308;SDS011;11322;50.858;-1.778;2023-03-01T07:30:34;2.8;;;1.2;;
22308;SDS011;11322;50.858;-1.778;2023-03-01T07:35:35;5.6;;;2.3;;
22308;SDS011;11322;50.858;-1.778;2023-03-01T07:40:34;2.35;;;1.85;;
22308;SDS011;11322;50.858;-1.778;2023-03-01T07:45:35;2.65;;;1.5;;
22308;SDS011;11322;50.858;-1.778;2023-03-01T07:50:35;1.85;;;1.7;;
22308;SDS011;11322;50.858;-1.778;2023-03-01T07:55:34;5.0;;;2.6;;
22308;SDS011;11322;50.858;-1.778;2023-03-01T08:00:34;3.1;;;1.7;;
22308;SDS011;11322;50.858;-1.778;2023-03-01T08:05:34;5.2;;;2.45;;
22308;SDS011;11322;50.858;-1.778;2023-03-01T08:10:34;2.4;;;1.75;;
22308;SDS011;11322;50.858;-1.778;2023-03-01T08:15:34;5.05;;;2.2;;
22308;SDS011;11322;50.858;-1.778;2023-03-01T08:20:34;2.55;;;1.8;;
22308;SDS011;11322;50.858;-1.778;2023-03-01T08:25:34;4.75;;;2.6;;
22308;SDS011;11322;50.858;-1.778;2023-03-01T08:30:34;4.9;;;3.05;;
22308;SDS011;11322;50.858;-1.778;2023-03-01T08:35:34;1.5;;;1.25;;
22308;SDS011;11322;50.858;-1.778;2023-03-01T08:40:34;5.45;;;2.8;;
22308;SDS011;11322;50.858;-1.778;2023-03-01T08:45:36;3.55;;;1.5;;
22308;SDS011;11322;50.858;-1.778;2023-03-01T08:50:34;5.35;;;2.55;;
22308;SDS011;11322;50.858;-1.778;2023-03-01T08:55:34;2.4;;;1.35;;
22308;SDS011;11322;50.858;-1.778;2023-03-01T09:00:34;8.05;;;2.6;;
22308;SDS011;11322;50.858;-1.778;2023-03-01T09:10:37;0.95;;;0.95;;
22308;SDS011;11322;50.858;-1.778;2023-03-01T09:15:35;3.95;;;1.9;;
22308;SDS011;11322;50.858;-1.778;2023-03-01T09:20:36;6.1;;;2.7;;
22308;SDS011;11322;50.858;-1.778;2023-03-01T09:25:34;4.5;;;2.4;;
22308;SDS011;11322;50.858;-1.778;2023-03-01T09:30:34;5.85;;;2.65;;
22308;SDS011;11322;50.858;-1.778;2023-03-01T09:35:34;1.15;;;1.15;;
22308;SDS011;11322;50.858;-1.778;2023-03-01T09:40:34;1.6;;;1.1;;
22308;SDS011;11322;50.858;-1.778;2023-03-01T09:45:35;1.35;;;0.9;;
22308;SDS011;11322;50.858;-1.778;2023-03-01T09:50:35;2.9;;;1.5;;
22308;SDS011;11322;50.858;-1.778;2023-03-01T09:55:37;2.0;;;1.1;;
22308;SDS011;11322;50.858;-1.778;2023-03-01T10:00:36;1.2;;;0.7;;
22308;SDS011;11322;50.858;-1.778;2023-03-01T10:05:35;1.6;;;1.35;;
22308;SDS011;11322;50.858;-1.778;2023-03-01T10:10:34;2.85;;;1.6;;
22308;SDS011;11322;50.858;-1.778;2023-03-01T10:15:34;9.3;;;2.7;;
22308;SDS011;11322;50.858;-1.778;2023-03-01T10:20:37;9.1;;;3.1;;
22308;SDS011;11322;50.858;-1.778;2023-03-01T10:25:42;6.8;;;1.8;;
22308;SDS011;11322;50.858;-1.778;2023-03-01T10:30:34;9.75;;;3.3;;
22308;SDS011;11322;50.858;-1.778;2023-03-01T10:35:34;2.05;;;1.3;;
22308;SDS011;11322;50.858;-1.778;2023-03-01T10:40:34;2.9;;;2.1;;
22308;SDS011;11322;50.858;-1.778;2023-03-01T10:45:39;4.05;;;2.0;;
22308;SDS011;11322;50.858;-1.778;2023-03-01T10:50:34;2.9;;;1.4;;
22308;SDS011;11322;50.858;-1.778;2023-03-01T10:55:34;5.65;;;1.95;;
22308;SDS011;11322;50.858;-1.778;2023-03-01T11:00:34;2.6;;;1.35;;
22308;SDS011;11322;50.858;-1.778;2023-03-01T11:00:48;2.6;;;1.35;;
22308;SDS011;11322;50.858;-1.778;2023-03-01T11:05:34;1.0;;;0.75;;
22308;SDS011;11322;50.858;-1.778;2023-03-01T11:10:34;3.25;;;1.2;;
22308;SDS011;11322;50.858;-1.778;2023-03-01T11:15:34;6.15;;;1.9;;
22308;SDS011;11322;50.858;-1.778;2023-03-01T11:20:34;0.6;;;0.6;;
22308;SDS011;11322;50.858;-1.778;2023-03-01T11:25:35;2.1;;;1.2;;
22308;SDS011;11322;50.858;-1.778;2023-03-01T11:30:35;2.1;;;1.1;;
22308;SDS011;11322;50.858;-1.778;2023-03-01T11:35:34;2.4;;;1.05;;
22308;SDS011;11322;50.858;-1.778;2023-03-01T11:40:35;2.6;;;1.0;;
22308;SDS011;11322;50.858;-1.778;2023-03-01T11:45:39;1.95;;;1.1;;
22308;SDS011;11322;50.858;-1.778;2023-03-01T11:50:35;2.85;;;0.85;;
22308;SDS011;11322;50.858;-1.778;2023-03-01T11:55:43;2.95;;;0.95;;
22308;SDS011;11322;50.858;-1.778;2023-03-01T12:00:40;3.8;;;0.6;;
22308;SDS011;11322;50.858;-1.778;2023-03-01T12:05:40;3.7;;;0.9;;
22308;SDS011;11322;50.858;-1.778;2023-03-01T12:11:51;2.0;;;1.45;;
22308;SDS011;11322;50.858;-1.778;2023-03-01T12:15:39;2.6;;;1.4;;
22308;SDS011;11322;50.858;-1.778;2023-03-01T12:20:35;0.9;;;0.8;;
22308;SDS011;11322;50.858;-1.778;2023-03-01T12:25:35;1.6;;;1.05;;
22308;SDS011;11322;50.858;-1.778;2023-03-01T12:30:37;5.5;;;1.75;;
22308;SDS011;11322;50.858;-1.778;2023-03-01T12:35:50;3.05;;;1.4;;
22308;SDS011;11322;50.858;-1.778;2023-03-01T12:40:38;1.6;;;1.0;;
22308;SDS011;11322;50.858;-1.778;2023-03-01T12:45:40;4.3;;;1.55;;
22308;SDS011;11322;50.858;-1.778;2023-03-01T12:50:37;0.8;;;0.8;;
22308;SDS011;11322;50.858;-1.778;2023-03-01T12:55:35;5.35;;;2.4;;
22308;SDS011;11322;50.858;-1.778;2023-03-01T13:00:35;6.95;;;1.45;;
22308;SDS011;11322;50.858;-1.778;2023-03-01T13:05:36;3.5;;;1.6;;
22308;SDS011;11322;50.858;-1.778;2023-03-01T13:10:34;2.95;;;0.85;;
22308;SDS011;11322;50.858;-1.778;2023-03-01T13:15:34;4.5;;;1.9;;
22308;SDS011;11322;50.858;-1.778;2023-03-01T13:20:34;5.85;;;1.4;;
22308;SDS011;11322;50.858;-1.778;2023-03-01T13:25:34;8.1;;;1.2;;
22308;SDS011;11322;50.858;-1.778;2023-03-01T13:30:41;4.75;;;1.5;;
22308;SDS011;11322;50.858;-1.778;2023-03-01T13:35:42;4.65;;;1.5;;
22308;SDS011;11322;50.858;-1.778;2023-03-01T13:40:58;1.1;;;1.0;;
22308;SDS011;11322;50.858;-1.778;2023-03-01T13:45:36;3.45;;;1.75;;
22308;SDS011;11322;50.858;-1.778;2023-03-01T13:50:36;6.4;;;0.95;;
22308;SDS011;11322;50.858;-1.778;2023-03-01T13:55:37;1.55;;;1.0;;
22308;SDS011;11322;50.858;-1.778;2023-03-01T14:00:34;2.35;;;1.4;;
22308;SDS011;11322;50.858;-1.778;2023-03-01T14:05:34;0.9;;;0.8;;
22308;SDS011;11322;50.858;-1.778;2023-03-01T14:10:37;2.5;;;1.3;;
22308;SDS011;11322;50.858;-1.778;2023-03-01T14:15:34;1.3;;;1.0;;
22308;SDS011;11322;50.858;-1.778;2023-03-01T14:20:37;1.95;;;0.85;;
22308;SDS011;11322;50.858;-1.778;2023-03-01T14:25:34;0.75;;;0.75;;
22308;SDS011;11322;50.858;-1.778;2023-03-01T14:30:35;0.6;;;0.6;;
22308;SDS011;11322;50.858;-1.778;2023-03-01T14:35:35;2.0;;;0.75;;
22308;SDS011;11322;50.858;-1.778;2023-03-01T14:40:35;1.1;;;1.0;;
22308;SDS011;11322;50.858;-1.778;2023-03-01T14:45:34;5.65;;;1.9;;
22308;SDS011;11322;50.858;-1.778;2023-03-01T14:50:34;1.45;;;1.2;;
22308;SDS011;11322;50.858;-1.778;2023-03-01T14:55:35;3.5;;;1.35;;
22308;SDS011;11322;50.858;-1.778;2023-03-01T15:00:34;0.95;;;0.9;;
22308;SDS011;11322;50.858;-1.778;2023-03-01T15:05:34;1.9;;;0.5;;
22308;SDS011;11322;50.858;-1.778;2023-03-01T15:10:35;2.85;;;1.7;;
22308;SDS011;11322;50.858;-1.778;2023-03-01T15:15:35;2.5;;;1.4;;
22308;SDS011;11322;50.858;-1.778;2023-03-01T15:20:34;2.65;;;1.25;;
22308;SDS011;11322;50.858;-1.778;2023-03-01T15:25:34;1.2;;;0.65;;
22308;SDS011;11322;50.858;-1.778;2023-03-01T15:30:34;1.75;;;1.0;;
22308;SDS011;11322;50.858;-1.778;2023-03-01T15:35:38;2.85;;;2.15;;
22308;SDS011;11322;50.858;-1.778;2023-03-01T15:40:34;2.65;;;1.55;;
22308;SDS011;11322;50.858;-1.778;2023-03-01T15:45:34;1.85;;;1.6;;
22308;SDS011;11322;50.858;-1.778;2023-03-01T15:50:34;1.2;;;1.1;;
22308;SDS011;11322;50.858;-1.778;2023-03-01T15:55:34;1.15;;;0.9;;
22308;SDS011;11322;50.858;-1.778;2023-03-01T16:00:34;5.05;;;1.15;;
22308;SDS011;11322;50.858;-1.778;2023-03-01T16:05:34;2.05;;;1.3;;
22308;SDS011;11322;50.858;-1.778;2023-03-01T16:10:34;1.2;;;1.1;;
22308;SDS011;11322;50.858;-1.778;2023-03-01T16:15:34;5.3;;;2.25;;
22308;SDS011;11322;50.858;-1.778;2023-03-01T16:20:34;6.25;;;2.0;;
22308;SDS011;11322;50.858;-1.778;2023-03-01T16:25:34;5.95;;;3.2;;
22308;SDS011;11322;50.858;-1.778;2023-03-01T16:30:34;1.6;;;1.45;;
22308;SDS011;11322;50.858;-1.778;2023-03-01T16:35:38;3.8;;;2.55;;
22308;SDS011;11322;50.858;-1.778;2023-03-01T16:40:34;3.15;;;1.65;;
22308;SDS011;11322;50.858;-1.778;2023-03-01T16:45:34;5.55;;;3.0;;
22308;SDS011;11322;50.858;-1.778;2023-03-01T16:50:34;4.25;;;2.8;;
22308;SDS011;11322;50.858;-1.778;2023-03-01T16:55:34;3.7;;;2.2;;
22308;SDS011;11322;50.858;-1.778;2023-03-01T17:00:34;4.85;;;2.35;;
22308;SDS011;11322;50.858;-1.778;2023-03-01T17:05:34;30.15;;;14.85;;
22308;SDS011;11322;50.858;-1.778;2023-03-01T17:10:34;8.35;;;4.0;;
22308;SDS011;11322;50.858;-1.778;2023-03-01T17:15:34;3.45;;;2.7;;
22308;SDS011;11322;50.858;-1.778;2023-03-01T17:20:34;10.95;;;5.45;;
22308;SDS011;11322;50.858;-1.778;2023-03-01T17:25:34;10.3;;;4.3;;
22308;SDS011;11322;50.858;-1.778;2023-03-01T17:30:34;3.3;;;2.4;;
22308;SDS011;11322;50.858;-1.778;2023-03-01T17:35:34;3.35;;;1.6;;
22308;SDS011;11322;50.858;-1.778;2023-03-01T17:40:34;2.6;;;1.6;;
22308;SDS011;11322;50.858;-1.778;2023-03-01T17:45:35;6.35;;;1.9;;
22308;SDS011;11322;50.858;-1.778;2023-03-01T17:50:35;8.9;;;7.2;;
22308;SDS011;11322;50.858;-1.778;2023-03-01T17:55:34;3.6;;;2.6;;
22308;SDS011;11322;50.858;-1.778;2023-03-01T18:00:34;4.9;;;4.35;;
22308;SDS011;11322;50.858;-1.778;2023-03-01T18:05:34;22.8;;;9.1;;
22308;SDS011;11322;50.858;-1.778;2023-03-01T18:10:34;29.15;;;13.05;;
22308;SDS011;11322;50.858;-1.778;2023-03-01T18:15:34;4.4;;;4.0;;
22308;SDS011;11322;50.858;-1.778;2023-03-01T18:20:34;5.45;;;2.9;;
22308;SDS011;11322;50.858;-1.778;2023-03-01T18:25:34;2.05;;;1.5;;
22308;SDS011;11322;50.858;-1.778;2023-03-01T18:30:34;1.75;;;1.4;;
22308;SDS011;11322;50.858;-1.778;2023-03-01T18:35:35;1.1;;;1.0;;
22308;SDS011;11322;50.858;-1.778;2023-03-01T18:40:34;2.3;;;2.05;;
22308;SDS011;11322;50.858;-1.778;2023-03-01T18:45:34;1.25;;;1.1;;
22308;SDS011;11322;50.858;-1.778;2023-03-01T18:50:34;3.1;;;2.15;;
22308;SDS011;11322;50.858;-1.778;2023-03-01T18:55:34;4.8;;;1.7;;
22308;SDS011;11322;50.858;-1.778;2023-03-01T19:00:34;3.2;;;1.95;;
22308;SDS011;11322;50.858;-1.778;2023-03-01T19:05:34;8.8;;;3.95;;
22308;SDS011;11322;50.858;-1.778;2023-03-01T19:10:34;8.45;;;4.85;;
22308;SDS011;11322;50.858;-1.778;2023-03-01T19:15:34;3.4;;;2.9;;
22308;SDS011;11322;50.858;-1.778;2023-03-01T19:20:34;2.2;;;1.85;;
22308;SDS011;11322;50.858;-1.778;2023-03-01T19:25:34;1.1;;;1.0;;
22308;SDS011;11322;50.858;-1.778;2023-03-01T19:30:34;0.85;;;0.8;;
22308;SDS011;11322;50.858;-1.778;2023-03-01T19:35:34;4.75;;;2.1;;
22308;SDS011;11322;50.858;-1.778;2023-03-01T19:40:34;2.55;;;1.85;;
22308;SDS011;11322;50.858;-1.778;2023-03-01T19:45:34;9.2;;;4.1;;
22308;SDS011;11322;50.858;-1.778;2023-03-01T19:50:34;32.1;;;11.8;;
22308;SDS011;11322;50.858;-1.778;2023-03-01T19:55:34;4.35;;;3.6;;
22308;SDS011;11322;50.858;-1.778;2023-03-01T20:00:34;3.1;;;2.8;;
22308;SDS011;11322;50.858;-1.778;2023-03-01T20:05:34;4.3;;;0.9;;
22308;SDS011;11322;50.858;-1.778;2023-03-01T20:10:34;1.35;;;1.2;;
22308;SDS011;11322;50.858;-1.778;2023-03-01T20:15:34;1.95;;;1.6;;
22308;SDS011;11322;50.858;-1.778;2023-03-01T20:20:34;8.5;;;2.7;;
22308;SDS011;11322;50.858;-1.778;2023-03-01T20:25:34;4.2;;;2.7;;
22308;SDS011;11322;50.858;-1.778;2023-03-01T20:30:34;3.9;;;1.55;;
22308;SDS011;11322;50.858;-1.778;2023-03-01T20:35:34;1.45;;;0.95;;
22308;SDS011;11322;50.858;-1.778;2023-03-01T20:40:34;0.65;;;0.65;;
22308;SDS011;11322;50.858;-1.778;2023-03-01T20:45:35;0.6;;;0.6;;
22308;SDS011;11322;50.858;-1.778;2023-03-01T20:50:34;4.0;;;1.5;;
22308;SDS011;11322;50.858;-1.778;2023-03-01T20:55:34;1.8;;;1.7;;
22308;SDS011;11322;50.858;-1.778;2023-03-01T21:00:34;2.15;;;1.4;;
22308;SDS011;11322;50.858;-1.778;2023-03-01T21:05:34;6.45;;;2.95;;
22308;SDS011;11322;50.858;-1.778;2023-03-01T21:10:34;12.4;;;4.75;;
22308;SDS011;11322;50.858;-1.778;2023-03-01T21:15:34;10.25;;;3.75;;
22308;SDS011;11322;50.858;-1.778;2023-03-01T21:20:34;9.0;;;3.55;;
22308;SDS011;11322;50.858;-1.778;2023-03-01T21:25:34;11.2;;;3.6;;
22308;SDS011;11322;50.858;-1.778;2023-03-01T21:30:34;19.35;;;5.45;;
22308;SDS011;11322;50.858;-1.778;2023-03-01T21:35:34;5.8;;;3.2;;
22308;SDS011;11322;50.858;-1.778;2023-03-01T21:40:35;17.35;;;5.2;;
22308;SDS011;11322;50.858;-1.778;2023-03-01T21:45:34;21.35;;;6.95;;
22308;SDS011;11322;50.858;-1.778;2023-03-01T21:50:34;23.8;;;7.15;;
22308;SDS011;11322;50.858;-1.778;2023-03-01T21:55:34;87.15;;;23.7;;
22308;SDS011;11322;50.858;-1.778;2023-03-01T22:00:34;83.25;;;28.9;;
22308;SDS011;11322;50.858;-1.778;2023-03-01T22:05:34;30.35;;;11.7;;
22308;SDS011;11322;50.858;-1.778;2023-03-01T22:10:37;20.45;;;9.15;;
22308;SDS011;11322;50.858;-1.778;2023-03-01T22:15:34;5.3;;;2.5;;
22308;SDS011;11322;50.858;-1.778;2023-03-01T22:20:34;6.1;;;2.65;;
22308;SDS011;11322;50.858;-1.778;2023-03-01T22:25:39;31.4;;;8.8;;
22308;SDS011;11322;50.858;-1.778;2023-03-01T22:30:34;4.1;;;1.9;;
22308;SDS011;11322;50.858;-1.778;2023-03-01T22:35:34;0.7;;;0.6;;
22308;SDS011;11322;50.858;-1.778;2023-03-01T22:40:34;2.2;;;1.1;;
22308;SDS011;11322;50.858;-1.778;2023-03-01T22:45:34;5.65;;;1.45;;
22308;SDS011;11322;50.858;-1.778;2023-03-01T22:50:34;0.45;;;0.4;;
22308;SDS011;11322;50.858;-1.778;2023-03-01T22:55:34;3.15;;;1.6;;
22308;SDS011;11322;50.858;-1.778;2023-03-01T23:00:34;1.1;;;1.05;;
22308;SDS011;11322;50.858;-1.778;2023-03-01T23:05:34;0.6;;;0.6;;
22308;SDS011;11322;50.858;-1.778;2023-03-01T23:10:38;1.5;;;1.4;;
22308;SDS011;11322;50.858;-1.778;2023-03-01T23:15:34;2.35;;;1.35;;
22308;SDS011;11322;50.858;-1.778;2023-03-01T23:20:34;0.5;;;0.5;;
22308;SDS011;11322;50.858;-1.778;2023-03-01T23:25:34;0.85;;;0.75;;
22308;SDS011;11322;50.858;-1.778;2023-03-01T23:30:34;0.7;;;0.6;;
22308;SDS011;11322;50.858;-1.778;2023-03-01T23:35:37;0.9;;;0.9;;
22308;SDS011;11322;50.858;-1.778;2023-03-01T23:40:36;6.9;;;1.1;;
22308;SDS011;11322;50.858;-1.778;2023-03-01T23:45:35;1.8;;;1.0;;
22308;SDS011;11322;50.858;-1.778;2023-03-01T23:50:34;6.45;;;1.45;;
22308;SDS011;11322;50.858;-1.778;2023-03-01T23:55:34;2.45;;;1.6;;
